Time;durP1;ratioP1;P1;durP2;ratioP2;P2;SDS_P1;SDS_P2;PMS_P1;PMS_P2;Temp;Humidity;BMP_temperature;BMP_pressure;BME280_temperature;BME280_humidity;BME280_pressure;Samples;Min_cycle;Max_cycle;Signal;HPM_P1;HPM_P2
2022/03/31 00:02:05;;;;;;;4.97;1.27;;;;;;;;;;4980671;28;20050;-68
2022/03/31 00:04:31;;;;;;;6.68;1.42;;;;;;;;;;4992786;28;20066;-68
2022/03/31 00:06:57;;;;;;;6.18;1.27;;;;;;;;;;4988267;28;20038;-68
2022/03/31 00:09:23;;;;;;;4.68;1.30;;;;;;;;;;4992374;28;20471;-68
2022/03/31 00:11:49;;;;;;;5.63;1.38;;;;;;;;;;4992134;28;20434;-68
2022/03/31 00:14:15;;;;;;;7.13;1.10;;;;;;;;;;4982304;28;20388;-68
2022/03/31 00:16:41;;;;;;;8.65;1.35;;;;;;;;;;4993485;28;20117;-68
2022/03/31 00:19:07;;;;;;;4.80;1.13;;;;;;;;;;4986335;28;20047;-68
2022/03/31 00:24:36;;;;;;;5.93;1.08;;;;;;;;;;4975005;28;20050;-67
2022/03/31 00:27:04;;;;;;;5.43;1.13;;;;;;;;;;4983128;28;20065;-67
2022/03/31 00:29:30;;;;;;;3.75;1.13;;;;;;;;;;4988433;28;20046;-67
2022/03/31 00:31:56;;;;;;;4.15;1.10;;;;;;;;;;4993105;28;20049;-67
2022/03/31 00:34:22;;;;;;;6.30;1.60;;;;;;;;;;4988034;28;20042;-68
2022/03/31 00:36:51;;;;;;;8.95;1.77;;;;;;;;;;4992063;28;20049;-68
2022/03/31 00:39:31;;;;;;;6.97;2.08;;;;;;;;;;4986933;28;20387;-67
2022/03/31 00:41:58;;;;;;;5.93;2.38;;;;;;;;;;4983561;28;20505;-68
2022/03/31 00:44:24;;;;;;;7.63;2.08;;;;;;;;;;4986529;28;20136;-68
2022/03/31 00:46:52;;;;;;;10.25;2.50;;;;;;;;;;4990437;28;20132;-68
2022/03/31 00:49:19;;;;;;;7.65;2.00;;;;;;;;;;4983055;28;20090;-68
2022/03/31 00:51:46;;;;;;;5.63;1.80;;;;;;;;;;4961571;28;20520;-68
2022/03/31 00:54:13;;;;;;;9.45;2.42;;;;;;;;;;4991246;28;20042;-68
2022/03/31 00:56:40;;;;;;;6.50;2.35;;;;;;;;;;4987258;28;20045;-68
2022/03/31 00:59:06;;;;;;;8.73;2.58;;;;;;;;;;4984036;28;20042;-68
2022/03/31 01:01:33;;;;;;;6.88;2.55;;;;;;;;;;4977992;28;20125;-68
2022/03/31 01:04:00;;;;;;;6.72;2.70;;;;;;;;;;4983773;28;20050;-68
2022/03/31 01:06:26;;;;;;;7.32;3.35;;;;;;;;;;4992675;28;20039;-68
2022/03/31 01:08:53;;;;;;;6.50;2.25;;;;;;;;;;4989976;28;20042;-68
2022/03/31 01:11:20;;;;;;;10.38;4.13;;;;;;;;;;4974674;28;20077;-68
2022/03/31 01:13:46;;;;;;;11.27;4.10;;;;;;;;;;4989812;28;20046;-68
2022/03/31 01:16:12;;;;;;;8.32;4.88;;;;;;;;;;4980306;28;20094;-68
2022/03/31 01:18:39;;;;;;;8.80;4.53;;;;;;;;;;4995557;28;20502;-68
2022/03/31 01:21:05;;;;;;;8.35;4.22;;;;;;;;;;4990533;28;20101;-68
2022/03/31 01:23:32;;;;;;;6.90;4.03;;;;;;;;;;4991229;28;20046;-68
2022/03/31 01:25:58;;;;;;;8.40;4.40;;;;;;;;;;4983249;28;20498;-68
2022/03/31 01:28:24;;;;;;;6.93;3.53;;;;;;;;;;4985266;28;20062;-68
2022/03/31 01:30:50;;;;;;;8.52;4.40;;;;;;;;;;4985807;28;20047;-68
2022/03/31 01:33:17;;;;;;;8.95;4.10;;;;;;;;;;4991489;28;20516;-68
2022/03/31 01:35:43;;;;;;;12.27;4.55;;;;;;;;;;4994846;28;20061;-68
2022/03/31 01:38:09;;;;;;;9.90;3.85;;;;;;;;;;4989658;28;20046;-68
2022/03/31 01:40:36;;;;;;;6.57;2.42;;;;;;;;;;4989762;28;20132;-68
2022/03/31 01:43:02;;;;;;;12.20;3.85;;;;;;;;;;4993975;28;20053;-68
2022/03/31 01:45:28;;;;;;;7.15;3.38;;;;;;;;;;4994798;28;20164;-68
2022/03/31 01:47:55;;;;;;;10.15;4.03;;;;;;;;;;4972142;28;20130;-68
2022/03/31 01:50:21;;;;;;;7.47;3.25;;;;;;;;;;4967215;28;20482;-68
2022/03/31 01:52:48;;;;;;;8.00;3.75;;;;;;;;;;4990475;28;20039;-68
2022/03/31 01:55:14;;;;;;;7.68;3.15;;;;;;;;;;4993369;28;20493;-68
2022/03/31 01:57:40;;;;;;;8.80;3.78;;;;;;;;;;4991672;28;20046;-68
2022/03/31 02:00:07;;;;;;;9.88;4.13;;;;;;;;;;4993842;28;20440;-68
2022/03/31 02:02:33;;;;;;;7.43;3.25;;;;;;;;;;4990307;28;20450;-68
2022/03/31 02:04:59;;;;;;;9.75;3.67;;;;;;;;;;4988688;28;20050;-67
2022/03/31 02:07:25;;;;;;;7.07;3.08;;;;;;;;;;4994398;28;20093;-67
2022/03/31 02:09:51;;;;;;;12.65;4.22;;;;;;;;;;4980741;28;20403;-68
2022/03/31 02:12:18;;;;;;;12.35;4.38;;;;;;;;;;4978451;28;20481;-68
2022/03/31 02:14:44;;;;;;;9.90;4.78;;;;;;;;;;4991041;28;20053;-68
2022/03/31 02:17:11;;;;;;;9.98;3.72;;;;;;;;;;4995013;28;20046;-67
2022/03/31 02:19:38;;;;;;;6.70;3.33;;;;;;;;;;4979831;28;20070;-69
2022/03/31 02:22:04;;;;;;;9.32;4.93;;;;;;;;;;4973667;28;20042;-68
2022/03/31 02:24:31;;;;;;;9.45;5.32;;;;;;;;;;4994357;28;20589;-68
2022/03/31 02:26:57;;;;;;;9.90;5.85;;;;;;;;;;4994852;28;20125;-67
2022/03/31 02:29:23;;;;;;;10.07;6.43;;;;;;;;;;4993578;28;20034;-68
2022/03/31 02:31:49;;;;;;;12.07;6.95;;;;;;;;;;4989857;28;20520;-68
2022/03/31 02:34:16;;;;;;;11.48;6.63;;;;;;;;;;4988726;28;20058;-68
2022/03/31 02:36:44;;;;;;;11.27;6.70;;;;;;;;;;4979707;28;20174;-68
2022/03/31 02:39:11;;;;;;;11.00;6.90;;;;;;;;;;4979149;28;20117;-68
2022/03/31 02:41:38;;;;;;;9.10;5.13;;;;;;;;;;4983449;28;20058;-68
2022/03/31 02:44:04;;;;;;;10.25;5.93;;;;;;;;;;4993322;28;20405;-68
2022/03/31 02:46:31;;;;;;;10.95;6.57;;;;;;;;;;4985058;28;20047;-68
2022/03/31 02:48:57;;;;;;;10.30;6.78;;;;;;;;;;4978697;28;20054;-68
2022/03/31 02:51:24;;;;;;;9.55;6.40;;;;;;;;;;4977730;28;20043;-68
2022/03/31 02:56:35;;;;;;;14.73;7.72;;;;;;;;;;4987026;28;20050;-68
2022/03/31 02:59:01;;;;;;;12.00;7.20;;;;;;;;;;4993352;28;20097;-68
2022/03/31 03:01:27;;;;;;;10.98;7.82;;;;;;;;;;4989500;28;20100;-68
2022/03/31 03:03:58;;;;;;;13.15;8.63;;;;;;;;;;4991444;28;20116;-68
2022/03/31 03:06:25;;;;;;;9.20;6.93;;;;;;;;;;4985547;28;20097;-68
2022/03/31 03:08:51;;;;;;;11.98;9.05;;;;;;;;;;4993534;28;20047;-68
2022/03/31 03:11:17;;;;;;;13.18;8.30;;;;;;;;;;4990147;28;20122;-68
2022/03/31 03:13:44;;;;;;;11.13;7.97;;;;;;;;;;4985149;28;20417;-68
2022/03/31 03:16:11;;;;;;;10.45;8.00;;;;;;;;;;4979939;28;20058;-68
2022/03/31 03:18:37;;;;;;;9.38;6.28;;;;;;;;;;4989634;28;20050;-68
2022/03/31 03:21:04;;;;;;;11.52;7.90;;;;;;;;;;4991030;28;20050;-68
2022/03/31 03:23:33;;;;;;;10.73;6.85;;;;;;;;;;4988246;28;20117;-68
2022/03/31 03:26:01;;;;;;;12.52;8.13;;;;;;;;;;4976443;28;20464;-68
2022/03/31 03:28:27;;;;;;;11.50;8.65;;;;;;;;;;4985497;28;20046;-68
2022/03/31 03:30:53;;;;;;;13.25;8.98;;;;;;;;;;4991579;28;20038;-68
2022/03/31 03:33:19;;;;;;;11.65;8.35;;;;;;;;;;4960754;28;20054;-68
2022/03/31 03:35:45;;;;;;;13.20;9.73;;;;;;;;;;4988690;28;20030;-68
2022/03/31 03:38:11;;;;;;;13.90;9.88;;;;;;;;;;4982661;28;20398;-68
2022/03/31 03:40:37;;;;;;;13.77;9.35;;;;;;;;;;4975348;28;20062;-68
2022/03/31 03:43:04;;;;;;;13.18;9.90;;;;;;;;;;4992830;28;20482;-68
2022/03/31 03:45:30;;;;;;;15.15;12.18;;;;;;;;;;4991035;28;20134;-68
2022/03/31 03:47:58;;;;;;;11.98;9.13;;;;;;;;;;4993600;28;20047;-68
2022/03/31 03:50:27;;;;;;;12.15;10.18;;;;;;;;;;4988829;28;20073;-68
2022/03/31 03:52:53;;;;;;;11.55;9.07;;;;;;;;;;4992836;28;20438;-68
2022/03/31 03:55:19;;;;;;;11.15;9.23;;;;;;;;;;4989262;28;20049;-68
2022/03/31 03:57:45;;;;;;;11.20;9.05;;;;;;;;;;4976883;28;20047;-68
2022/03/31 04:00:11;;;;;;;11.75;8.50;;;;;;;;;;4991672;28;20094;-68
2022/03/31 04:02:39;;;;;;;12.20;9.48;;;;;;;;;;4986402;28;20147;-68
2022/03/31 04:05:05;;;;;;;11.38;8.95;;;;;;;;;;4981432;28;20038;-68
2022/03/31 04:07:31;;;;;;;9.52;6.78;;;;;;;;;;4987714;28;20045;-68
2022/03/31 04:09:57;;;;;;;10.27;8.48;;;;;;;;;;4989395;28;20035;-68
2022/03/31 04:12:23;;;;;;;10.88;8.13;;;;;;;;;;4985976;28;20505;-68
2022/03/31 04:14:49;;;;;;;11.52;9.18;;;;;;;;;;4990487;28;20043;-68
2022/03/31 04:17:16;;;;;;;13.68;11.13;;;;;;;;;;4986380;28;20053;-68
2022/03/31 04:19:43;;;;;;;12.15;9.70;;;;;;;;;;4991694;28;20449;-68
2022/03/31 04:22:09;;;;;;;13.43;10.57;;;;;;;;;;4988066;28;20053;-68
2022/03/31 04:24:35;;;;;;;13.00;9.60;;;;;;;;;;4991018;28;20043;-68
2022/03/31 04:27:01;;;;;;;12.85;9.77;;;;;;;;;;4993688;28;20053;-68
2022/03/31 04:29:27;;;;;;;11.10;7.88;;;;;;;;;;4982961;28;20046;-67
2022/03/31 04:31:53;;;;;;;13.02;10.43;;;;;;;;;;4976128;28;20054;-68
2022/03/31 04:34:20;;;;;;;12.50;9.73;;;;;;;;;;4986124;28;20053;-67
2022/03/31 04:36:49;;;;;;;12.38;9.55;;;;;;;;;;4976161;28;20039;-68
2022/03/31 04:39:15;;;;;;;12.90;10.30;;;;;;;;;;4991878;28;20066;-68
2022/03/31 04:41:42;;;;;;;12.23;9.50;;;;;;;;;;4989066;28;20499;-68
2022/03/31 04:44:08;;;;;;;13.57;10.55;;;;;;;;;;4984502;28;20038;-68
2022/03/31 04:46:35;;;;;;;13.35;10.60;;;;;;;;;;4980905;28;20125;-68
2022/03/31 04:49:01;;;;;;;15.23;11.95;;;;;;;;;;4991574;28;20056;-68
2022/03/31 04:51:27;;;;;;;13.43;10.68;;;;;;;;;;4992265;28;20043;-67
2022/03/31 04:53:54;;;;;;;12.38;9.65;;;;;;;;;;4988354;28;20049;-68
2022/03/31 04:56:20;;;;;;;13.23;10.32;;;;;;;;;;4990570;28;20048;-68
2022/03/31 04:58:46;;;;;;;13.10;10.43;;;;;;;;;;4972893;28;20051;-68
2022/03/31 05:01:12;;;;;;;13.40;10.88;;;;;;;;;;4983651;28;20049;-68
2022/03/31 05:03:39;;;;;;;13.43;9.88;;;;;;;;;;4961168;28;20051;-67
2022/03/31 05:06:06;;;;;;;12.48;9.93;;;;;;;;;;4987677;28;20042;-68
2022/03/31 05:08:32;;;;;;;12.70;9.63;;;;;;;;;;4990249;28;20452;-68
2022/03/31 05:10:58;;;;;;;12.48;10.07;;;;;;;;;;4992185;28;20383;-68
2022/03/31 05:13:24;;;;;;;12.93;10.98;;;;;;;;;;4988767;28;20152;-68
2022/03/31 05:15:50;;;;;;;11.02;8.63;;;;;;;;;;4992089;28;20046;-69
2022/03/31 05:18:16;;;;;;;12.68;10.15;;;;;;;;;;4989709;28;20114;-68
2022/03/31 05:20:43;;;;;;;11.75;10.02;;;;;;;;;;4991243;28;20050;-68
2022/03/31 05:23:09;;;;;;;11.68;9.55;;;;;;;;;;4987003;28;20398;-67
2022/03/31 05:25:35;;;;;;;12.85;10.07;;;;;;;;;;4973493;28;20053;-68
2022/03/31 05:28:01;;;;;;;13.82;11.35;;;;;;;;;;4991622;28;20046;-69
2022/03/31 05:30:27;;;;;;;11.63;8.65;;;;;;;;;;4991221;28;20070;-68
2022/03/31 05:32:53;;;;;;;11.75;9.50;;;;;;;;;;4990966;28;20042;-69
2022/03/31 05:35:20;;;;;;;11.90;9.70;;;;;;;;;;4974071;28;20097;-69
2022/03/31 05:37:46;;;;;;;11.95;9.93;;;;;;;;;;4991203;28;20142;-69
2022/03/31 05:40:13;;;;;;;13.07;11.48;;;;;;;;;;4989155;28;20060;-69
2022/03/31 05:42:39;;;;;;;14.40;10.90;;;;;;;;;;4980956;28;20054;-69
2022/03/31 05:45:07;;;;;;;11.32;8.63;;;;;;;;;;4990338;28;20061;-68
2022/03/31 05:47:33;;;;;;;14.88;11.90;;;;;;;;;;4965494;28;20136;-68
2022/03/31 05:49:59;;;;;;;12.30;10.15;;;;;;;;;;4989696;28;20121;-68
2022/03/31 05:52:25;;;;;;;10.55;8.82;;;;;;;;;;4983515;28;20092;-67
2022/03/31 05:54:51;;;;;;;14.10;12.18;;;;;;;;;;4965472;28;20047;-69
2022/03/31 05:57:17;;;;;;;11.90;9.63;;;;;;;;;;4988411;28;20051;-68
2022/03/31 05:59:43;;;;;;;13.13;10.98;;;;;;;;;;4984480;28;20050;-69
2022/03/31 06:02:11;;;;;;;14.43;12.40;;;;;;;;;;4991041;28;20046;-68
2022/03/31 06:04:37;;;;;;;15.40;11.75;;;;;;;;;;4976669;28;20042;-67
2022/03/31 06:07:04;;;;;;;13.05;10.25;;;;;;;;;;4995643;28;20457;-69
2022/03/31 06:09:30;;;;;;;14.55;12.18;;;;;;;;;;4990875;28;20038;-68
2022/03/31 06:11:56;;;;;;;16.65;13.55;;;;;;;;;;4993315;28;20038;-68
2022/03/31 06:14:22;;;;;;;14.23;11.95;;;;;;;;;;4992082;28;20101;-68
2022/03/31 06:16:49;;;;;;;15.50;12.88;;;;;;;;;;4976629;28;20118;-69
2022/03/31 06:19:15;;;;;;;14.15;11.32;;;;;;;;;;4991818;28;20046;-68
2022/03/31 06:21:42;;;;;;;14.77;12.57;;;;;;;;;;4990643;28;20108;-68
2022/03/31 06:24:08;;;;;;;16.23;14.23;;;;;;;;;;4991638;28;20038;-68
2022/03/31 06:26:35;;;;;;;15.85;13.60;;;;;;;;;;4993163;28;20207;-68
2022/03/31 06:29:01;;;;;;;15.82;13.48;;;;;;;;;;4970406;28;20100;-68
2022/03/31 06:31:27;;;;;;;17.65;14.63;;;;;;;;;;4990501;28;20061;-68
2022/03/31 06:33:53;;;;;;;16.08;12.70;;;;;;;;;;4990864;28;20042;-67
2022/03/31 06:36:20;;;;;;;17.60;14.68;;;;;;;;;;4984544;28;20089;-69
2022/03/31 06:38:46;;;;;;;18.52;15.75;;;;;;;;;;4990822;28;20042;-68
2022/03/31 06:41:15;;;;;;;22.27;17.95;;;;;;;;;;4981393;28;20109;-67
2022/03/31 06:43:43;;;;;;;19.90;16.27;;;;;;;;;;4976303;28;20042;-68
2022/03/31 06:46:10;;;;;;;22.15;17.98;;;;;;;;;;4959090;28;20046;-67
2022/03/31 06:48:36;;;;;;;21.40;18.25;;;;;;;;;;4986300;28;20047;-68
2022/03/31 06:51:04;;;;;;;23.15;17.90;;;;;;;;;;4987746;28;20561;-68
2022/03/31 06:53:30;;;;;;;23.63;19.63;;;;;;;;;;4980928;28;20049;-68
2022/03/31 06:55:56;;;;;;;21.50;18.08;;;;;;;;;;4962785;28;20047;-68
2022/03/31 06:58:25;;;;;;;21.75;18.33;;;;;;;;;;4984611;28;20502;-68
2022/03/31 07:00:51;;;;;;;23.52;20.17;;;;;;;;;;4994869;28;20061;-68
2022/03/31 07:03:17;;;;;;;30.70;23.05;;;;;;;;;;4989553;28;20038;-68
2022/03/31 07:05:44;;;;;;;27.52;23.55;;;;;;;;;;4988555;28;20058;-68
2022/03/31 07:08:10;;;;;;;24.50;20.33;;;;;;;;;;4990958;28;20077;-68
2022/03/31 07:10:36;;;;;;;23.00;17.65;;;;;;;;;;4994895;28;20042;-69
2022/03/31 07:13:02;;;;;;;24.58;20.48;;;;;;;;;;4985215;28;20057;-68
2022/03/31 07:15:28;;;;;;;25.05;21.02;;;;;;;;;;4981693;28;20046;-67
2022/03/31 07:17:55;;;;;;;25.90;21.55;;;;;;;;;;4984849;28;20039;-67
2022/03/31 07:20:22;;;;;;;25.15;20.08;;;;;;;;;;4973326;28;20126;-68
2022/03/31 07:22:48;;;;;;;25.77;21.73;;;;;;;;;;4980034;28;21832;-68
2022/03/31 07:25:16;;;;;;;25.35;19.20;;;;;;;;;;4986530;28;20072;-68
2022/03/31 07:27:42;;;;;;;21.67;18.98;;;;;;;;;;4992471;28;20050;-68
2022/03/31 07:30:09;;;;;;;26.65;20.98;;;;;;;;;;4976885;28;20112;-67
2022/03/31 07:32:35;;;;;;;22.80;18.33;;;;;;;;;;4984914;28;20042;-67
2022/03/31 07:35:02;;;;;;;24.75;19.45;;;;;;;;;;4991021;28;20456;-67
2022/03/31 07:37:28;;;;;;;22.40;17.85;;;;;;;;;;4978883;28;20045;-67
2022/03/31 07:39:54;;;;;;;21.30;15.15;;;;;;;;;;4974651;28;20042;-67
2022/03/31 07:42:20;;;;;;;21.90;17.75;;;;;;;;;;4988319;28;20528;-69
2022/03/31 07:44:46;;;;;;;18.77;16.67;;;;;;;;;;4993848;28;20078;-69
2022/03/31 07:47:12;;;;;;;20.15;16.75;;;;;;;;;;4989199;28;20045;-70
2022/03/31 07:49:38;;;;;;;21.73;16.83;;;;;;;;;;4982610;28;20038;-68
2022/03/31 07:52:04;;;;;;;22.10;17.38;;;;;;;;;;4990236;28;20089;-67
2022/03/31 07:54:31;;;;;;;19.88;17.00;;;;;;;;;;4959667;28;20478;-67
2022/03/31 07:56:57;;;;;;;22.45;17.55;;;;;;;;;;4982106;28;20112;-67
2022/03/31 07:59:25;;;;;;;25.05;18.88;;;;;;;;;;4970932;28;20090;-67
2022/03/31 08:01:52;;;;;;;21.83;17.52;;;;;;;;;;4992884;28;20100;-68
2022/03/31 08:04:20;;;;;;;22.85;17.85;;;;;;;;;;4990419;28;20097;-68
2022/03/31 08:06:46;;;;;;;20.70;14.70;;;;;;;;;;4984265;28;20046;-67
2022/03/31 08:09:13;;;;;;;19.90;17.33;;;;;;;;;;4985107;28;20080;-67
2022/03/31 08:11:41;;;;;;;19.25;15.32;;;;;;;;;;4982236;28;20046;-67
2022/03/31 08:14:07;;;;;;;19.45;15.35;;;;;;;;;;4968625;28;20050;-68
2022/03/31 08:16:33;;;;;;;16.73;13.48;;;;;;;;;;4976938;28;20046;-67
2022/03/31 08:18:59;;;;;;;21.20;16.60;;;;;;;;;;4987814;28;20042;-68
2022/03/31 08:21:25;;;;;;;20.45;16.60;;;;;;;;;;4991541;28;20049;-69
2022/03/31 08:23:51;;;;;;;18.40;14.57;;;;;;;;;;4990686;28;20405;-67
2022/03/31 08:26:17;;;;;;;15.82;11.98;;;;;;;;;;4993151;28;20045;-68
2022/03/31 08:28:44;;;;;;;15.38;12.40;;;;;;;;;;4984285;28;20464;-68
2022/03/31 08:31:10;;;;;;;14.25;10.95;;;;;;;;;;4986684;28;20181;-68
2022/03/31 08:33:36;;;;;;;15.05;10.82;;;;;;;;;;4961446;28;20114;-68
2022/03/31 08:36:02;;;;;;;13.40;10.18;;;;;;;;;;4980785;28;20185;-69
2022/03/31 08:38:28;;;;;;;12.75;9.93;;;;;;;;;;4958464;28;20112;-69
2022/03/31 08:40:56;;;;;;;13.50;9.45;;;;;;;;;;4981081;28;20059;-68
2022/03/31 08:43:22;;;;;;;12.88;8.23;;;;;;;;;;4990497;28;20556;-68
2022/03/31 08:45:54;;;;;;;11.25;8.20;;;;;;;;;;4990119;28;20046;-68
2022/03/31 08:48:21;;;;;;;10.10;7.60;;;;;;;;;;4985422;28;20046;-69
2022/03/31 08:50:47;;;;;;;10.65;7.20;;;;;;;;;;4978445;28;20086;-68
2022/03/31 08:53:13;;;;;;;8.65;5.72;;;;;;;;;;4974457;28;20046;-68
2022/03/31 08:55:39;;;;;;;8.20;5.75;;;;;;;;;;4992027;28;20065;-68
2022/03/31 08:58:05;;;;;;;9.60;7.20;;;;;;;;;;4980280;28;20180;-68
2022/03/31 09:00:31;;;;;;;9.15;6.68;;;;;;;;;;4981602;28;20074;-68
2022/03/31 09:03:00;;;;;;;9.00;6.75;;;;;;;;;;4980646;28;20047;-68
2022/03/31 09:05:34;;;;;;;7.88;5.45;;;;;;;;;;4991947;28;20046;-68
2022/03/31 09:08:02;;;;;;;7.95;5.32;;;;;;;;;;4986475;28;20042;-68
2022/03/31 09:10:28;;;;;;;7.50;5.00;;;;;;;;;;4989613;28;20129;-68
2022/03/31 09:12:54;;;;;;;7.55;5.57;;;;;;;;;;4988180;28;20069;-68
2022/03/31 09:15:20;;;;;;;6.90;4.80;;;;;;;;;;4991918;28;20120;-67
2022/03/31 09:17:46;;;;;;;7.00;5.00;;;;;;;;;;4973674;28;20516;-68
2022/03/31 09:20:12;;;;;;;12.15;7.25;;;;;;;;;;4991353;28;20039;-69
2022/03/31 09:22:48;;;;;;;7.00;5.22;;;;;;;;;;4960077;28;20038;-67
2022/03/31 09:25:22;;;;;;;7.00;4.38;;;;;;;;;;4977565;28;20093;-67
2022/03/31 09:27:48;;;;;;;6.78;4.50;;;;;;;;;;4985937;28;20046;-67
2022/03/31 09:30:15;;;;;;;6.68;4.57;;;;;;;;;;4992873;28;20045;-67
2022/03/31 09:32:51;;;;;;;6.97;4.72;;;;;;;;;;4988929;28;20046;-67
2022/03/31 09:35:21;;;;;;;6.60;4.80;;;;;;;;;;4995370;28;20508;-68
2022/03/31 09:37:49;;;;;;;7.03;4.90;;;;;;;;;;4986163;28;20062;-69
2022/03/31 09:40:16;;;;;;;6.57;4.80;;;;;;;;;;4991008;28;20046;-67
2022/03/31 09:42:42;;;;;;;5.93;4.10;;;;;;;;;;4985979;28;20053;-68
2022/03/31 09:45:10;;;;;;;5.80;4.32;;;;;;;;;;4994619;28;20046;-68
2022/03/31 09:47:50;;;;;;;7.55;5.65;;;;;;;;;;4994381;28;20077;-69
2022/03/31 09:50:16;;;;;;;6.68;4.25;;;;;;;;;;4984400;28;20410;-68
2022/03/31 09:52:43;;;;;;;7.32;5.32;;;;;;;;;;4988838;28;20097;-68
2022/03/31 09:55:09;;;;;;;6.95;4.90;;;;;;;;;;4986117;28;20047;-67
2022/03/31 09:57:35;;;;;;;6.10;4.20;;;;;;;;;;4991840;28;20601;-67
2022/03/31 10:00:02;;;;;;;6.22;4.15;;;;;;;;;;4987774;28;20054;-67
2022/03/31 10:02:28;;;;;;;6.22;4.32;;;;;;;;;;4984106;28;20062;-67
2022/03/31 10:04:54;;;;;;;6.88;5.05;;;;;;;;;;4981340;28;20082;-67
2022/03/31 10:07:22;;;;;;;7.30;5.47;;;;;;;;;;4985457;28;20039;-67
2022/03/31 10:09:48;;;;;;;6.63;5.18;;;;;;;;;;4986772;28;20047;-67
2022/03/31 10:12:14;;;;;;;6.55;4.55;;;;;;;;;;4994570;28;20038;-67
2022/03/31 10:14:45;;;;;;;7.07;5.38;;;;;;;;;;4995934;28;20220;-66
2022/03/31 10:17:12;;;;;;;7.35;5.15;;;;;;;;;;4995160;28;20069;-68
2022/03/31 10:19:44;;;;;;;7.10;5.22;;;;;;;;;;4988633;28;20042;-67
2022/03/31 10:25:17;;;;;;;7.30;5.20;;;;;;;;;;4995828;28;20058;-68
2022/03/31 10:27:50;;;;;;;8.48;5.57;;;;;;;;;;4990013;28;20410;-67
2022/03/31 10:30:18;;;;;;;9.02;6.20;;;;;;;;;;4943910;28;20043;-68
2022/03/31 10:32:55;;;;;;;7.47;4.90;;;;;;;;;;4964343;28;20068;-68
2022/03/31 10:35:22;;;;;;;7.43;5.32;;;;;;;;;;4993195;28;20042;-67
2022/03/31 10:37:48;;;;;;;8.07;5.30;;;;;;;;;;4976365;28;20548;-67
2022/03/31 10:40:16;;;;;;;8.55;6.57;;;;;;;;;;4974701;28;20186;-67
2022/03/31 10:42:42;;;;;;;9.13;7.20;;;;;;;;;;4984028;28;20088;-68
2022/03/31 10:45:12;;;;;;;9.60;7.38;;;;;;;;;;4987132;28;20043;-68
2022/03/31 10:47:40;;;;;;;12.38;7.25;;;;;;;;;;4983624;28;20409;-67
2022/03/31 10:50:07;;;;;;;9.30;6.85;;;;;;;;;;4977697;28;20046;-69
2022/03/31 10:52:33;;;;;;;9.73;7.13;;;;;;;;;;4995416;28;20089;-67
2022/03/31 10:55:10;;;;;;;9.32;6.78;;;;;;;;;;4987382;28;20045;-67
2022/03/31 10:57:40;;;;;;;9.23;6.55;;;;;;;;;;4989943;28;20045;-67
2022/03/31 11:00:08;;;;;;;9.23;6.82;;;;;;;;;;4981399;28;20054;-67
2022/03/31 11:02:39;;;;;;;10.30;7.40;;;;;;;;;;4979453;28;20058;-68
2022/03/31 11:05:06;;;;;;;8.50;6.03;;;;;;;;;;4968706;28;20137;-68
2022/03/31 11:07:32;;;;;;;10.73;7.97;;;;;;;;;;4983857;28;20046;-68
2022/03/31 11:10:04;;;;;;;10.95;9.05;;;;;;;;;;4985959;28;20038;-68
2022/03/31 11:12:32;;;;;;;11.32;8.82;;;;;;;;;;4984531;28;20493;-68
2022/03/31 11:15:05;;;;;;;11.00;8.48;;;;;;;;;;4986072;28;20108;-67
2022/03/31 11:17:32;;;;;;;13.23;9.85;;;;;;;;;;4993048;28;20084;-68
2022/03/31 11:19:59;;;;;;;10.50;7.75;;;;;;;;;;4987297;28;20043;-68
2022/03/31 11:22:28;;;;;;;11.25;8.88;;;;;;;;;;4990402;28;20051;-67
2022/03/31 11:24:56;;;;;;;13.27;9.98;;;;;;;;;;4987412;28;20117;-68
2022/03/31 11:27:36;;;;;;;13.63;10.50;;;;;;;;;;4988105;28;20129;-67
2022/03/31 11:30:03;;;;;;;12.63;10.48;;;;;;;;;;4975222;28;20042;-67
2022/03/31 11:32:30;;;;;;;14.52;12.00;;;;;;;;;;4975944;28;20427;-68
2022/03/31 11:34:58;;;;;;;14.77;12.50;;;;;;;;;;4980107;28;20043;-67
2022/03/31 11:37:24;;;;;;;14.68;11.65;;;;;;;;;;4976586;28;20046;-68
2022/03/31 11:39:50;;;;;;;13.90;11.57;;;;;;;;;;4994176;28;20133;-68
2022/03/31 11:42:17;;;;;;;16.88;13.27;;;;;;;;;;4974756;28;20057;-69
2022/03/31 11:44:43;;;;;;;17.88;14.57;;;;;;;;;;4974659;28;20069;-69
2022/03/31 11:47:17;;;;;;;20.42;16.13;;;;;;;;;;4964759;28;20059;-68
2022/03/31 11:49:44;;;;;;;19.55;15.55;;;;;;;;;;4957825;28;20070;-68
2022/03/31 11:52:10;;;;;;;18.67;15.25;;;;;;;;;;4973844;28;20514;-69
2022/03/31 11:54:39;;;;;;;21.65;17.65;;;;;;;;;;4974589;28;20043;-69
2022/03/31 11:57:10;;;;;;;21.55;18.05;;;;;;;;;;4974118;28;20057;-69
2022/03/31 11:59:36;;;;;;;24.80;20.73;;;;;;;;;;4974584;28;20047;-68
2022/03/31 12:02:02;;;;;;;24.67;19.40;;;;;;;;;;4955540;28;20054;-69
2022/03/31 12:04:31;;;;;;;26.45;21.60;;;;;;;;;;4967488;28;20035;-68
2022/03/31 12:06:57;;;;;;;29.63;23.30;;;;;;;;;;4973592;28;20050;-69
2022/03/31 12:09:26;;;;;;;28.13;22.00;;;;;;;;;;4975461;28;20105;-67
2022/03/31 12:11:55;;;;;;;32.58;25.02;;;;;;;;;;4972122;28;20078;-68
2022/03/31 12:14:21;;;;;;;29.58;22.80;;;;;;;;;;4974270;28;20047;-68
2022/03/31 12:16:52;;;;;;;33.60;25.58;;;;;;;;;;4973952;28;20450;-68
2022/03/31 12:19:18;;;;;;;40.13;28.85;;;;;;;;;;4961092;28;20458;-68
2022/03/31 12:21:49;;;;;;;44.50;32.50;;;;;;;;;;4953314;28;20435;-68
2022/03/31 12:24:15;;;;;;;40.30;29.40;;;;;;;;;;4974090;28;20556;-68
2022/03/31 12:27:00;;;;;;;46.65;32.88;;;;;;;;;;4974211;28;20043;-68
2022/03/31 12:29:27;;;;;;;39.20;28.25;;;;;;;;;;4969529;28;20491;-69
2022/03/31 12:32:10;;;;;;;37.08;29.15;;;;;;;;;;4956181;28;20122;-68
2022/03/31 12:34:37;;;;;;;41.92;31.20;;;;;;;;;;4956244;28;20514;-68
2022/03/31 12:37:04;;;;;;;39.20;31.02;;;;;;;;;;4972731;28;20046;-69
2022/03/31 12:39:30;;;;;;;38.50;29.67;;;;;;;;;;4956880;28;20047;-69
2022/03/31 12:41:57;;;;;;;31.35;26.67;;;;;;;;;;4975693;28;20082;-69
2022/03/31 12:44:28;;;;;;;31.73;25.10;;;;;;;;;;4982887;28;20046;-69
2022/03/31 12:46:55;;;;;;;31.70;24.70;;;;;;;;;;4990451;28;20038;-69
2022/03/31 12:49:25;;;;;;;28.17;22.42;;;;;;;;;;4992129;28;20309;-69
2022/03/31 12:51:59;;;;;;;25.38;21.65;;;;;;;;;;4988084;28;20043;-68
2022/03/31 12:54:32;;;;;;;22.50;20.00;;;;;;;;;;4976454;28;20126;-69
2022/03/31 12:57:00;;;;;;;17.45;13.70;;;;;;;;;;4975516;28;20135;-68
2022/03/31 12:59:30;;;;;;;24.35;19.95;;;;;;;;;;4980085;28;20509;-68
2022/03/31 13:02:09;;;;;;;26.10;21.52;;;;;;;;;;4973798;28;20401;-68
2022/03/31 13:04:40;;;;;;;22.27;18.75;;;;;;;;;;4963920;28;20502;-67
2022/03/31 13:07:16;;;;;;;22.10;17.95;;;;;;;;;;4983384;28;20038;-68
2022/03/31 13:09:43;;;;;;;25.83;19.52;;;;;;;;;;4995214;28;20170;-68
2022/03/31 13:12:09;;;;;;;21.60;17.88;;;;;;;;;;4992074;28;20053;-68
2022/03/31 13:14:45;;;;;;;24.45;18.58;;;;;;;;;;4992868;28;20042;-68
2022/03/31 13:17:14;;;;;;;22.25;18.17;;;;;;;;;;4987441;28;20058;-68
2022/03/31 13:19:40;;;;;;;22.35;19.38;;;;;;;;;;4988681;28;20180;-68
2022/03/31 13:22:07;;;;;;;23.75;18.98;;;;;;;;;;4970142;28;20093;-68
2022/03/31 13:24:33;;;;;;;23.70;17.48;;;;;;;;;;4984924;28;20042;-68
2022/03/31 13:26:59;;;;;;;21.45;18.05;;;;;;;;;;4980534;28;20133;-68
2022/03/31 13:29:25;;;;;;;21.52;16.30;;;;;;;;;;4977294;28;20129;-68
2022/03/31 13:31:52;;;;;;;22.75;17.65;;;;;;;;;;4995113;28;20502;-68
2022/03/31 13:34:21;;;;;;;20.80;16.38;;;;;;;;;;4990832;28;20516;-69
2022/03/31 13:36:47;;;;;;;23.63;17.60;;;;;;;;;;4978515;28;20043;-68
2022/03/31 13:39:15;;;;;;;23.98;19.52;;;;;;;;;;4966154;28;20105;-68
2022/03/31 13:41:45;;;;;;;19.88;17.13;;;;;;;;;;4987881;28;20046;-68
2022/03/31 13:44:12;;;;;;;22.50;18.75;;;;;;;;;;4986373;28;20038;-68
2022/03/31 13:46:45;;;;;;;22.98;18.00;;;;;;;;;;4970840;28;20038;-68
2022/03/31 13:49:11;;;;;;;22.27;18.33;;;;;;;;;;4955567;28;20088;-68
2022/03/31 13:51:38;;;;;;;20.55;16.85;;;;;;;;;;4984339;28;20062;-68
2022/03/31 13:54:06;;;;;;;23.27;17.88;;;;;;;;;;4981682;28;20069;-68
2022/03/31 13:56:35;;;;;;;21.33;17.00;;;;;;;;;;4977756;28;20456;-68
2022/03/31 14:01:49;;;;;;;18.63;15.02;;;;;;;;;;4976483;28;20054;-68
2022/03/31 14:04:15;;;;;;;21.55;17.83;;;;;;;;;;4984278;28;20053;-68
2022/03/31 14:06:41;;;;;;;15.43;11.63;;;;;;;;;;4993873;28;20153;-68
2022/03/31 14:09:08;;;;;;;17.83;15.30;;;;;;;;;;4982054;28;20054;-68
2022/03/31 14:11:34;;;;;;;14.10;12.60;;;;;;;;;;4982428;28;20043;-68
2022/03/31 14:14:03;;;;;;;17.10;13.35;;;;;;;;;;4976579;28;20489;-68
2022/03/31 14:16:30;;;;;;;15.32;12.30;;;;;;;;;;4985859;28;20050;-68
2022/03/31 14:18:57;;;;;;;14.00;11.27;;;;;;;;;;4988073;28;20065;-68
2022/03/31 14:21:23;;;;;;;14.90;10.85;;;;;;;;;;4995534;28;20060;-68
2022/03/31 14:23:49;;;;;;;15.18;12.20;;;;;;;;;;4976076;28;20058;-68
2022/03/31 14:26:16;;;;;;;13.95;12.18;;;;;;;;;;4990922;28;20058;-68
2022/03/31 14:28:43;;;;;;;13.82;11.50;;;;;;;;;;4985340;28;20046;-67
2022/03/31 14:31:15;;;;;;;13.40;11.95;;;;;;;;;;4981392;28;20042;-69
2022/03/31 14:33:42;;;;;;;15.55;11.45;;;;;;;;;;4985897;28;20080;-69
2022/03/31 14:36:08;;;;;;;12.93;9.73;;;;;;;;;;4985910;28;20045;-69
2022/03/31 14:38:35;;;;;;;13.73;11.23;;;;;;;;;;4995429;28;20054;-69
2022/03/31 14:41:09;;;;;;;13.45;10.90;;;;;;;;;;4992408;28;20096;-68